Airfield :
LOGIN :

Register | Disclaimer

   EN    FR    IT 

 










Legend :    VFR   Marginal VFR   IFR   Intensive IFR   Very Intensive IFR
Visi :
Ceiling :
>= 8 km
>= 3000ft
5 to 8 km
1000 to 3000 ft
1500m to 5 km
500 to 1000 ft
800 to 1500m
200 to 500 ft
< 800m
< 200 ft
Symbols :   Thunderstorms  Fog  Heavy snow  Heavy precipitations  Wind > 20 kt
SIGMETs :     Misc.  Thunderstorms  Icing  Turbulence  Mountain Waves  Volcanic Ashes






- Airport Elevation : 1411 ft
- IATA code : GVA


LSGG - Genève Cointrin

CURRENT METAR :
  • 300120Z AUTO VRB01KT CAVOK 08/07 Q1019 NOSIG

EXPIRED METARs :
  • 300050Z AUTO VRB01KT CAVOK 08/07 Q1019 NOSIG
  • 300020Z AUTO VRB01KT 8000 NCD 08/08 Q1019 NOSIG
  • 292350Z AUTO 02001KT 9999 NCD 09/08 Q1019 NOSIG
  • 292320Z AUTO 00000KT CAVOK 09/08 Q1019 BECMG 4500 BR
  • 292250Z AUTO 30002KT 9999 NSC 09/08 Q1019 BECMG 4500 BR
  • 292220Z AUTO 08001KT CAVOK 09/09 Q1019 NOSIG

TAF TAF LSGG
Valid from the 30 at 00:00 until the 01 at 06:00 UTC


292325Z 3000/0106 VRB03KT 9999 FEW030 TX19/3015Z TN08/3005Z TN08/0105Z
BECMG 3001/3003 4500 BR
PROB30
TEMPO 3003/3006 1200 BCFG
BECMG 3006/3008 9999
TEMPO 0102/0106 4500 BR
ATIS : +41 22 417 40 81



MET'MAP, your aeronautical weather chart ! - Copyright ORBIFLY December 2007 - Disclaimer

ORBIFLY MET'MAP TEAM :

Programming & Development : Alexandra Zaïnal
Concept & original design : Baudouin d'Aumeries
Assistance for programming : Marc-Olivier Méhu
Technical & hardware support : Manuel Goepfert

Contact : metmap@orbifly.com




SOURCES & CREDITS :

   NOAA